createdAt,value
2019-05-31T00:00:49.000Z,101107
2019-05-31T00:02:49.000Z,101102
2019-05-31T00:04:49.000Z,101104
2019-05-31T00:07:04.000Z,101102
2019-05-31T00:08:49.000Z,101103
2019-05-31T00:10:49.000Z,101097
2019-05-31T00:12:34.000Z,101095
2019-05-31T00:14:04.000Z,101091
2019-05-31T00:16:04.000Z,101091
2019-05-31T00:17:04.000Z,101094
2019-05-31T00:18:34.000Z,101084
2019-05-31T00:20:04.000Z,101086
2019-05-31T00:21:04.000Z,101079
2019-05-31T00:23:04.000Z,101083
2019-05-31T00:24:49.000Z,101091
2019-05-31T00:26:04.000Z,101084
2019-05-31T00:28:04.000Z,101081
2019-05-31T00:29:49.000Z,101087
2019-05-31T00:31:04.000Z,101086
2019-05-31T00:33:04.000Z,101088
2019-05-31T00:35:04.000Z,101088
2019-05-31T00:37:04.000Z,101082
2019-05-31T00:38:49.000Z,101081
2019-05-31T00:40:04.000Z,101081
2019-05-31T00:42:04.000Z,101083
2019-05-31T00:43:49.000Z,101082
2019-05-31T00:45:04.000Z,101079
2019-05-31T00:47:04.000Z,101081
2019-05-31T00:49:04.000Z,101080
2019-05-31T00:51:04.000Z,101082
2019-05-31T00:53:04.000Z,101079
2019-05-31T00:55:04.000Z,101077
2019-05-31T00:56:04.000Z,101077
2019-05-31T00:58:04.000Z,101073
2019-05-31T01:00:04.000Z,101080
2019-05-31T01:02:04.000Z,101078
2019-05-31T01:03:04.000Z,101083
2019-05-31T01:04:04.000Z,101082
2019-05-31T01:05:04.000Z,101075
2019-05-31T01:07:04.000Z,101075
2019-05-31T01:09:04.000Z,101076
2019-05-31T01:10:34.000Z,101072
2019-05-31T01:12:04.000Z,101074
2019-05-31T01:14:04.000Z,101072
2019-05-31T01:16:04.000Z,101075
2019-05-31T01:17:04.000Z,101076
2019-05-31T01:19:04.000Z,101080
2019-05-31T01:21:04.000Z,101073
2019-05-31T01:23:04.000Z,101081
2019-05-31T01:25:04.000Z,101078
2019-05-31T01:27:04.000Z,101078
2019-05-31T01:29:04.000Z,101085
2019-05-31T01:31:04.000Z,101081
2019-05-31T01:33:04.000Z,101074
2019-05-31T01:35:04.000Z,101073
2019-05-31T01:37:04.000Z,101076
2019-05-31T01:39:04.000Z,101072
2019-05-31T01:41:04.000Z,101075
2019-05-31T01:43:04.000Z,101074
2019-05-31T01:44:49.000Z,101075
2019-05-31T01:47:04.000Z,101076
2019-05-31T01:49:04.000Z,101073
2019-05-31T01:50:49.000Z,101072
2019-05-31T01:52:04.000Z,101070
2019-05-31T01:54:04.000Z,101072
2019-05-31T01:55:49.000Z,101071
2019-05-31T01:57:04.000Z,101064
2019-05-31T01:59:04.000Z,101061
2019-05-31T02:01:04.000Z,101064
2019-05-31T02:03:04.000Z,101068
2019-05-31T02:05:04.000Z,101061
2019-05-31T02:07:04.000Z,101068
2019-05-31T02:08:49.000Z,101068
2019-05-31T02:10:04.000Z,101063
2019-05-31T02:11:49.000Z,101063
2019-05-31T02:13:04.000Z,101064
2019-05-31T02:15:04.000Z,101065
2019-05-31T02:16:04.000Z,101066
2019-05-31T02:18:04.000Z,101058
2019-05-31T02:20:04.000Z,101058
2019-05-31T02:21:49.000Z,101066
2019-05-31T02:23:04.000Z,101067
2019-05-31T02:25:04.000Z,101060
2019-05-31T02:27:04.000Z,101065
2019-05-31T02:28:04.000Z,101069
2019-05-31T02:30:04.000Z,101067
2019-05-31T02:32:04.000Z,101062
2019-05-31T02:34:04.000Z,101063
2019-05-31T02:36:04.000Z,101065
2019-05-31T02:38:04.000Z,101068
2019-05-31T02:39:49.000Z,101062
2019-05-31T02:42:04.000Z,101062
2019-05-31T02:43:49.000Z,101062
2019-05-31T02:45:04.000Z,101062
2019-05-31T02:47:04.000Z,101055
2019-05-31T02:49:04.000Z,101064
2019-05-31T02:50:04.000Z,101064
2019-05-31T02:52:04.000Z,101065
2019-05-31T02:53:04.000Z,101064
2019-05-31T02:54:49.000Z,101063
2019-05-31T02:56:04.000Z,101068
2019-05-31T02:58:04.000Z,101059
2019-05-31T02:59:50.000Z,101063
2019-05-31T03:02:04.000Z,101066
2019-05-31T03:03:04.000Z,101068
2019-05-31T03:04:04.000Z,101072
2019-05-31T03:06:04.000Z,101069
2019-05-31T03:07:04.000Z,101069
2019-05-31T03:09:04.000Z,101070
2019-05-31T03:10:04.000Z,101073
2019-05-31T03:11:49.000Z,101069
2019-05-31T03:12:49.000Z,101071
2019-05-31T03:14:04.000Z,101067
2019-05-31T03:15:50.000Z,101066
2019-05-31T03:18:04.000Z,101064
2019-05-31T03:20:04.000Z,101065
2019-05-31T03:21:49.000Z,101061
2019-05-31T03:22:49.000Z,101063
2019-05-31T03:24:04.000Z,101065
2019-05-31T03:25:04.000Z,101061
2019-05-31T03:27:04.000Z,101066
2019-05-31T03:29:04.000Z,101067
2019-05-31T03:30:04.000Z,101064
2019-05-31T03:31:37.000Z,101065
2019-05-31T03:33:37.000Z,101074
2019-05-31T03:35:38.000Z,101071
2019-05-31T03:38:04.000Z,101080
2019-05-31T03:39:04.000Z,101085
2019-05-31T03:40:04.000Z,101086
2019-05-31T03:42:04.000Z,101089
2019-05-31T03:43:49.000Z,101087
2019-05-31T03:45:04.000Z,101091
2019-05-31T03:46:35.000Z,101109
2019-05-31T03:48:05.000Z,101097
2019-05-31T03:49:05.000Z,101100
2019-05-31T03:50:34.000Z,101087
2019-05-31T03:52:05.000Z,101102
2019-05-31T03:53:05.000Z,101090
2019-05-31T03:55:05.000Z,101092
2019-05-31T03:56:34.000Z,101094
2019-05-31T03:58:05.000Z,101095
2019-05-31T04:00:05.000Z,101096
2019-05-31T04:02:05.000Z,101092
2019-05-31T04:03:05.000Z,101095
2019-05-31T04:05:05.000Z,101091
2019-05-31T04:07:05.000Z,101098
2019-05-31T04:09:05.000Z,101102
2019-05-31T04:11:05.000Z,101099
2019-05-31T04:12:05.000Z,101102
2019-05-31T04:14:05.000Z,101102
2019-05-31T04:16:05.000Z,101104
2019-05-31T04:17:49.000Z,101104
2019-05-31T04:18:50.000Z,101103
2019-05-31T04:21:05.000Z,101107
2019-05-31T04:22:49.000Z,101106
2019-05-31T04:24:05.000Z,101106
2019-05-31T04:25:05.000Z,101114
2019-05-31T04:26:49.000Z,101114
2019-05-31T04:28:05.000Z,101106
2019-05-31T04:29:05.000Z,101105
2019-05-31T04:31:05.000Z,101112
2019-05-31T04:32:49.000Z,101111
2019-05-31T04:34:05.000Z,101110
2019-05-31T04:35:05.000Z,101115
2019-05-31T04:36:49.000Z,101111
2019-05-31T04:38:05.000Z,101109
2019-05-31T04:40:05.000Z,101109
2019-05-31T04:42:05.000Z,101110
2019-05-31T04:43:05.000Z,101111
2019-05-31T04:45:05.000Z,101116
2019-05-31T04:46:50.000Z,101117
2019-05-31T04:49:05.000Z,101120
2019-05-31T04:50:05.000Z,101125
2019-05-31T04:52:05.000Z,101125
2019-05-31T04:54:05.000Z,101121
2019-05-31T04:56:05.000Z,101129
2019-05-31T04:57:05.000Z,101124
2019-05-31T04:58:05.000Z,101123
2019-05-31T05:00:05.000Z,101116
2019-05-31T05:02:05.000Z,101118
2019-05-31T05:04:05.000Z,101123
2019-05-31T05:06:05.000Z,101123
2019-05-31T05:07:05.000Z,101116
2019-05-31T05:09:05.000Z,101117
2019-05-31T05:10:34.000Z,101122
2019-05-31T05:12:05.000Z,101113
2019-05-31T05:14:05.000Z,101119
2019-05-31T05:16:05.000Z,101119
2019-05-31T05:17:35.000Z,101123
2019-05-31T06:00:38.000Z,101172
2019-05-31T06:02:09.000Z,101164
2019-05-31T06:03:24.000Z,101169
2019-05-31T06:05:24.000Z,101176
2019-05-31T06:07:24.000Z,101183
2019-05-31T06:09:24.000Z,101192
2019-05-31T06:11:24.000Z,101182
2019-05-31T06:13:24.000Z,101190
2019-05-31T06:15:24.000Z,101188
2019-05-31T06:16:54.000Z,101185
2019-05-31T06:18:00.000Z,101185
2019-05-31T06:19:24.000Z,101191
2019-05-31T06:21:24.000Z,101186
2019-05-31T06:23:09.000Z,101191
2019-05-31T06:24:24.000Z,101186
2019-05-31T06:26:24.000Z,101191
2019-05-31T06:28:24.000Z,101194
2019-05-31T06:30:24.000Z,101193
2019-05-31T06:32:24.000Z,101191
2019-05-31T06:34:24.000Z,101188
2019-05-31T06:36:24.000Z,101185
2019-05-31T06:38:24.000Z,101177
2019-05-31T06:40:24.000Z,101175
2019-05-31T06:42:24.000Z,101176
2019-05-31T06:44:24.000Z,101178
2019-05-31T06:46:24.000Z,101167
2019-05-31T06:48:09.000Z,101169
2019-05-31T06:50:24.000Z,101177
2019-05-31T06:52:24.000Z,101176
2019-05-31T06:54:09.000Z,101185
2019-05-31T06:55:24.000Z,101184
2019-05-31T06:57:24.000Z,101185
2019-05-31T06:59:24.000Z,101193
2019-05-31T07:01:24.000Z,101187
2019-05-31T07:03:24.000Z,101191
2019-05-31T07:05:24.000Z,101197
2019-05-31T07:07:24.000Z,101188
2019-05-31T07:08:24.000Z,101192
2019-05-31T07:10:24.000Z,101194
2019-05-31T07:12:09.000Z,101191
2019-05-31T07:14:24.000Z,101200
2019-05-31T07:16:09.000Z,101191
2019-05-31T07:17:54.000Z,101192
2019-05-31T07:19:24.000Z,101199
2019-05-31T07:21:09.000Z,101193
2019-05-31T07:22:24.000Z,101190
2019-05-31T07:24:24.000Z,101198
2019-05-31T07:26:24.000Z,101192
2019-05-31T07:28:24.000Z,101188
2019-05-31T07:29:24.000Z,101194
2019-05-31T07:31:24.000Z,101192
2019-05-31T07:33:24.000Z,101199
2019-05-31T07:35:24.000Z,101199
2019-05-31T07:36:24.000Z,101193
2019-05-31T07:38:09.000Z,101196
2019-05-31T07:40:09.000Z,101188
2019-05-31T07:41:24.000Z,101201
2019-05-31T07:43:09.000Z,101194
2019-05-31T07:44:24.000Z,101204
2019-05-31T07:46:24.000Z,101190
2019-05-31T07:48:24.000Z,101193
2019-05-31T07:50:24.000Z,101200
2019-05-31T07:51:54.000Z,101199
2019-05-31T07:53:24.000Z,101208
2019-05-31T07:55:24.000Z,101200
2019-05-31T07:57:24.000Z,101198
2019-05-31T07:58:54.000Z,101198
2019-05-31T08:00:24.000Z,101196
2019-05-31T08:02:24.000Z,101189
2019-05-31T08:04:09.000Z,101193
2019-05-31T08:05:24.000Z,101197
2019-05-31T08:06:24.000Z,101194
2019-05-31T08:08:24.000Z,101193
2019-05-31T08:10:09.000Z,101194
2019-05-31T08:12:24.000Z,101195
2019-05-31T08:13:24.000Z,101196
2019-05-31T08:15:24.000Z,101192
2019-05-31T08:16:54.000Z,101186
2019-05-31T08:18:24.000Z,101185
2019-05-31T08:20:09.000Z,101185
2019-05-31T08:21:24.000Z,101187
2019-05-31T08:22:54.000Z,101183
2019-05-31T08:24:09.000Z,101185
2019-05-31T08:26:09.000Z,101181
2019-05-31T08:27:24.000Z,101190
2019-05-31T08:29:24.000Z,101185
2019-05-31T08:31:24.000Z,101185
2019-05-31T08:33:24.000Z,101183
2019-05-31T08:35:09.000Z,101186
2019-05-31T08:36:24.000Z,101188
2019-05-31T08:38:09.000Z,101183
2019-05-31T08:39:24.000Z,101187
2019-05-31T08:41:24.000Z,101179
2019-05-31T08:43:24.000Z,101172
2019-05-31T08:44:54.000Z,101177
2019-05-31T08:46:24.000Z,101172
2019-05-31T08:48:24.000Z,101173
2019-05-31T08:53:26.000Z,101180
2019-05-31T08:54:57.000Z,101178
2019-05-31T08:56:12.000Z,101182
2019-05-31T08:58:12.000Z,101181
2019-05-31T08:59:57.000Z,101176
2019-05-31T09:01:12.000Z,101183
2019-05-31T09:03:12.000Z,101196
2019-05-31T09:04:57.000Z,101193
2019-05-31T09:06:12.000Z,101187
2019-05-31T09:07:57.000Z,101191
2019-05-31T09:09:12.000Z,101190
2019-05-31T09:10:57.000Z,101190
2019-05-31T09:11:57.000Z,101183
2019-05-31T09:14:12.000Z,101185
2019-05-31T09:15:12.000Z,101184
2019-05-31T09:16:12.000Z,101188
2019-05-31T09:17:58.000Z,101187
2019-05-31T09:19:57.000Z,101186
2019-05-31T09:21:57.000Z,101188
2019-05-31T09:23:57.000Z,101187
2019-05-31T09:25:12.000Z,101191
2019-05-31T09:26:12.000Z,101187
2019-05-31T09:27:42.000Z,101196
2019-05-31T09:29:12.000Z,101203
2019-05-31T09:31:12.000Z,101202
2019-05-31T09:32:12.000Z,101199
2019-05-31T09:34:12.000Z,101191
2019-05-31T09:36:12.000Z,101191
2019-05-31T09:38:12.000Z,101194
2019-05-31T09:40:00.000Z,101193
2019-05-31T09:41:42.000Z,101192
2019-05-31T09:43:12.000Z,101191
2019-05-31T09:45:12.000Z,101188
2019-05-31T09:47:12.000Z,101200
2019-05-31T09:48:12.000Z,101189
2019-05-31T09:49:57.000Z,101187
2019-05-31T09:51:12.000Z,101187
2019-05-31T09:52:12.000Z,101187
2019-05-31T09:53:57.000Z,101191
2019-05-31T09:56:12.000Z,101187
2019-05-31T09:57:12.000Z,101189
2019-05-31T09:59:12.000Z,101197
2019-05-31T10:00:12.000Z,101201
2019-05-31T10:01:12.000Z,101191
2019-05-31T10:03:12.000Z,101199
2019-05-31T10:05:12.000Z,101195
2019-05-31T10:06:12.000Z,101207
2019-05-31T10:07:12.000Z,101200
2019-05-31T10:08:45.000Z,101194
2019-05-31T10:10:12.000Z,101194
2019-05-31T10:11:58.000Z,101205
2019-05-31T10:14:12.000Z,101205
2019-05-31T10:15:58.000Z,101206
2019-05-31T10:17:59.000Z,101192
2019-05-31T10:19:43.000Z,101202
2019-05-31T10:21:58.000Z,101203
2019-05-31T10:23:54.000Z,101200
2019-05-31T10:25:43.000Z,101198
2019-05-31T10:26:58.000Z,101205
2019-05-31T10:28:58.000Z,101199
2019-05-31T10:30:58.000Z,101187
2019-05-31T10:32:43.000Z,101202
2019-05-31T10:33:59.000Z,101197
2019-05-31T10:35:44.000Z,101197
2019-05-31T10:37:44.000Z,101185
2019-05-31T10:39:59.000Z,101184
2019-05-31T10:41:59.000Z,101192
2019-05-31T10:43:12.000Z,101191
2019-05-31T10:44:44.000Z,101190
2019-05-31T10:46:59.000Z,101187
2019-05-31T10:49:12.000Z,101182
2019-05-31T10:50:58.000Z,101193
2019-05-31T10:52:12.000Z,101185
2019-05-31T10:54:12.000Z,101181
2019-05-31T10:56:12.000Z,101185
2019-05-31T10:58:12.000Z,101178
2019-05-31T10:59:13.000Z,101185
2019-05-31T11:00:43.000Z,101188
2019-05-31T11:01:46.000Z,101181
2019-05-31T11:03:12.000Z,101175
2019-05-31T11:04:58.000Z,101177
2019-05-31T11:06:43.000Z,101171
2019-05-31T11:07:57.000Z,101177
2019-05-31T11:09:58.000Z,101179
2019-05-31T11:11:44.000Z,101167
2019-05-31T11:13:58.000Z,101166
2019-05-31T11:15:47.000Z,101165
2019-05-31T11:17:42.000Z,101153
2019-05-31T11:18:58.000Z,101154
2019-05-31T11:20:42.000Z,101153
2019-05-31T11:21:58.000Z,101152
2019-05-31T11:23:58.000Z,101152
2019-05-31T11:25:58.000Z,101157
2019-05-31T11:27:43.000Z,101151
2019-05-31T11:28:58.000Z,101151
2019-05-31T11:30:42.000Z,101140
2019-05-31T11:37:01.000Z,101144
2019-05-31T12:21:33.000Z,101147
2019-05-31T12:23:04.000Z,101150
2019-05-31T12:24:04.000Z,101155
2019-05-31T12:26:04.000Z,101152
2019-05-31T12:28:04.000Z,101151
2019-05-31T12:29:49.000Z,101152
2019-05-31T12:31:04.000Z,101148
2019-05-31T12:32:04.000Z,101150
2019-05-31T12:34:04.000Z,101148
2019-05-31T12:36:04.000Z,101157
2019-05-31T12:37:49.000Z,101159
2019-05-31T12:39:49.000Z,101149
2019-05-31T12:42:04.000Z,101145
2019-05-31T12:43:49.000Z,101152
2019-05-31T12:44:49.000Z,101147
2019-05-31T12:46:49.000Z,101145
2019-05-31T12:48:49.000Z,101139
2019-05-31T12:50:49.000Z,101151
2019-05-31T12:53:04.000Z,101157
2019-05-31T12:54:04.000Z,101155
2019-05-31T12:55:49.000Z,101147
2019-05-31T12:57:04.000Z,101166
2019-05-31T12:58:49.000Z,101157
2019-05-31T12:59:49.000Z,101155
2019-05-31T13:02:04.000Z,101161
2019-05-31T13:03:49.000Z,101163
2019-05-31T13:06:04.000Z,101158
2019-05-31T13:07:04.000Z,101157
2019-05-31T13:08:34.000Z,101161
2019-05-31T13:09:49.000Z,101155
2019-05-31T13:10:49.000Z,101157
2019-05-31T13:12:49.000Z,101154
2019-05-31T13:14:49.000Z,101152
2019-05-31T13:16:49.000Z,101147
2019-05-31T13:17:49.000Z,101157
2019-05-31T13:18:49.000Z,101159
2019-05-31T13:21:04.000Z,101149
2019-05-31T13:22:49.000Z,101152
2019-05-31T13:23:49.000Z,101149
2019-05-31T13:25:49.000Z,101149
2019-05-31T13:26:49.000Z,101149
2019-05-31T13:28:49.000Z,101144
2019-05-31T13:29:49.000Z,101148
2019-05-31T13:31:49.000Z,101151
2019-05-31T13:33:49.000Z,101151
2019-05-31T13:35:49.000Z,101148
2019-05-31T13:38:04.000Z,101154
2019-05-31T13:39:49.000Z,101149
2019-05-31T13:41:34.000Z,101162
2019-05-31T13:43:04.000Z,101154
2019-05-31T13:44:04.000Z,101148
2019-05-31T13:45:49.000Z,101143
2019-05-31T13:47:04.000Z,101153
2019-05-31T13:49:04.000Z,101151
2019-05-31T13:50:50.000Z,101147
2019-05-31T13:52:34.000Z,101156
2019-05-31T13:53:49.000Z,101152
2019-05-31T13:54:49.000Z,101143
2019-05-31T13:56:49.000Z,101146
2019-05-31T13:57:49.000Z,101144
2019-05-31T13:58:49.000Z,101143
2019-05-31T14:01:04.000Z,101146
2019-05-31T14:02:49.000Z,101146
2019-05-31T14:05:04.000Z,101140
2019-05-31T14:06:04.000Z,101143
2019-05-31T14:07:49.000Z,101145
2019-05-31T14:09:49.000Z,101145
2019-05-31T14:11:49.000Z,101148
2019-05-31T14:13:04.000Z,101144
2019-05-31T14:14:49.000Z,101142
2019-05-31T14:15:49.000Z,101141
2019-05-31T14:17:49.000Z,101143
2019-05-31T14:19:34.000Z,101136
2019-05-31T14:20:49.000Z,101139
2019-05-31T14:22:34.000Z,101139
2019-05-31T14:24:04.000Z,101139
2019-05-31T14:25:49.000Z,101140
2019-05-31T14:26:49.000Z,101134
2019-05-31T14:28:35.000Z,101132
2019-05-31T14:30:04.000Z,101130
2019-05-31T14:31:49.000Z,101130
2019-05-31T14:32:49.000Z,101136
2019-05-31T14:34:04.000Z,101137
2019-05-31T14:35:49.000Z,101135
2019-05-31T14:36:49.000Z,101141
2019-05-31T14:38:49.000Z,101133
2019-05-31T14:39:49.000Z,101134
2019-05-31T14:41:49.000Z,101142
2019-05-31T14:43:49.000Z,101139
2019-05-31T14:45:49.000Z,101143
2019-05-31T14:47:49.000Z,101141
2019-05-31T14:49:49.000Z,101140
2019-05-31T14:51:49.000Z,101133
2019-05-31T14:52:49.000Z,101138
2019-05-31T14:53:49.000Z,101139
2019-05-31T14:54:49.000Z,101143
2019-05-31T14:56:49.000Z,101145
2019-05-31T14:58:49.000Z,101141
2019-05-31T15:00:49.000Z,101138
2019-05-31T15:02:49.000Z,101130
2019-05-31T15:04:49.000Z,101129
2019-05-31T15:06:49.000Z,101127
2019-05-31T15:08:49.000Z,101129
2019-05-31T15:11:04.000Z,101133
2019-05-31T15:12:04.000Z,101127
2019-05-31T15:14:04.000Z,101132
2019-05-31T15:15:04.000Z,101128
2019-05-31T15:16:04.000Z,101127
2019-05-31T15:18:04.000Z,101128
2019-05-31T15:19:04.000Z,101120
2019-05-31T15:21:04.000Z,101116
2019-05-31T15:23:04.000Z,101123
2019-05-31T15:25:04.000Z,101123
2019-05-31T15:27:04.000Z,101131
2019-05-31T15:28:04.000Z,101129
2019-05-31T15:30:04.000Z,101135
2019-05-31T15:32:04.000Z,101119
2019-05-31T15:34:04.000Z,101132
2019-05-31T15:35:04.000Z,101128
2019-05-31T15:37:04.000Z,101119
2019-05-31T15:38:34.000Z,101126
2019-05-31T15:40:04.000Z,101129
2019-05-31T15:41:04.000Z,101122
2019-05-31T15:42:04.000Z,101115
2019-05-31T15:44:04.000Z,101117
2019-05-31T15:45:04.000Z,101116
2019-05-31T15:46:49.000Z,101118
2019-05-31T15:49:04.000Z,101128
2019-05-31T15:50:49.000Z,101130
2019-05-31T15:52:04.000Z,101126
2019-05-31T15:53:34.000Z,101127
2019-05-31T15:55:04.000Z,101119
2019-05-31T15:57:04.000Z,101124
2019-05-31T15:59:04.000Z,101120
2019-05-31T16:01:04.000Z,101120
2019-05-31T16:03:04.000Z,101119
2019-05-31T16:04:49.000Z,101117
2019-05-31T16:06:04.000Z,101120
2019-05-31T16:08:04.000Z,101114
2019-05-31T16:09:04.000Z,101109
2019-05-31T16:11:04.000Z,101119
2019-05-31T16:13:04.000Z,101117
2019-05-31T16:14:04.000Z,101105
2019-05-31T16:16:04.000Z,101112
2019-05-31T16:18:04.000Z,101107
2019-05-31T16:20:04.000Z,101105
2019-05-31T16:22:04.000Z,101103
2019-05-31T16:23:49.000Z,101095
2019-05-31T16:25:04.000Z,101103
2019-05-31T16:27:04.000Z,101100
2019-05-31T16:29:04.000Z,101104
2019-05-31T16:31:04.000Z,101098
2019-05-31T16:33:04.000Z,101095
2019-05-31T16:34:49.000Z,101095
2019-05-31T16:36:04.000Z,101091
2019-05-31T16:38:04.000Z,101100
2019-05-31T16:40:04.000Z,101096
2019-05-31T16:41:04.000Z,101097
2019-05-31T16:42:49.000Z,101102
2019-05-31T16:44:04.000Z,101107
2019-05-31T16:46:04.000Z,101102
2019-05-31T16:48:04.000Z,101106
2019-05-31T16:49:49.000Z,101104
2019-05-31T16:51:49.000Z,101105
2019-05-31T16:53:04.000Z,101100
2019-05-31T16:55:04.000Z,101101
2019-05-31T16:57:04.000Z,101099
2019-05-31T16:59:04.000Z,101098
2019-05-31T17:01:04.000Z,101088
2019-05-31T17:03:04.000Z,101095
2019-05-31T17:05:04.000Z,101085
2019-05-31T17:06:49.000Z,101096
2019-05-31T17:08:04.000Z,101093
2019-05-31T17:10:04.000Z,101091
2019-05-31T17:11:04.000Z,101091
2019-05-31T17:13:04.000Z,101088
2019-05-31T17:15:04.000Z,101083
2019-05-31T17:16:04.000Z,101084
2019-05-31T17:18:04.000Z,101078
2019-05-31T17:19:25.000Z,101079
2019-05-31T17:21:10.000Z,101077
2019-05-31T17:23:10.000Z,101071
2019-05-31T17:25:10.000Z,101070
2019-05-31T17:26:10.000Z,101073
2019-05-31T17:28:10.000Z,101077
2019-05-31T17:29:10.000Z,101072
2019-05-31T17:31:10.000Z,101071
2019-05-31T17:32:10.000Z,101067
2019-05-31T17:33:10.000Z,101073
2019-05-31T17:34:10.000Z,101073
2019-05-31T17:36:10.000Z,101075
2019-05-31T17:38:25.000Z,101077
2019-05-31T17:40:10.000Z,101075
2019-05-31T17:42:10.000Z,101076
2019-05-31T17:44:25.000Z,101077
2019-05-31T17:46:25.000Z,101081
2019-05-31T17:47:25.000Z,101077
2019-05-31T17:49:10.000Z,101080
2019-05-31T17:50:25.000Z,101075
2019-05-31T17:52:10.000Z,101066
2019-05-31T17:54:10.000Z,101072
2019-05-31T17:55:13.000Z,101082
2019-05-31T17:57:10.000Z,101077
2019-05-31T17:58:10.000Z,101073
2019-05-31T17:59:10.000Z,101074
2019-05-31T18:00:10.000Z,101074
2019-05-31T18:01:10.000Z,101078
2019-05-31T18:03:10.000Z,101077
2019-05-31T18:05:10.000Z,101075
2019-05-31T18:07:10.000Z,101073
2019-05-31T18:08:10.000Z,101070
2019-05-31T18:10:10.000Z,101074
2019-05-31T18:12:10.000Z,101069
2019-05-31T18:13:10.000Z,101072
2019-05-31T18:15:10.000Z,101075
2019-05-31T18:16:10.000Z,101069
2019-05-31T18:18:10.000Z,101071
2019-05-31T18:20:10.000Z,101073
2019-05-31T18:21:10.000Z,101072
2019-05-31T18:23:01.000Z,101071
2019-05-31T18:24:32.000Z,101077
2019-05-31T18:26:32.000Z,101080
2019-05-31T18:28:32.000Z,101075
2019-05-31T18:30:31.000Z,101072
2019-05-31T18:32:46.000Z,101071
2019-05-31T18:34:16.000Z,101072
2019-05-31T18:35:46.000Z,101074
2019-05-31T18:37:46.000Z,101071
2019-05-31T18:39:32.000Z,101073
2019-05-31T18:41:16.000Z,101073
2019-05-31T18:42:32.000Z,101074
2019-05-31T18:44:32.000Z,101071
2019-05-31T18:46:33.000Z,101074
2019-05-31T18:48:46.000Z,101072
2019-05-31T18:50:16.000Z,101068
2019-05-31T18:51:32.000Z,101069
2019-05-31T18:53:32.000Z,101069
2019-05-31T18:55:16.000Z,101068
2019-05-31T18:56:32.000Z,101069
2019-05-31T18:58:31.000Z,101073
2019-05-31T19:00:06.000Z,101073
2019-05-31T19:01:52.000Z,101075
2019-05-31T19:02:52.000Z,101079
2019-05-31T19:04:22.000Z,101073
2019-05-31T19:05:52.000Z,101077
2019-05-31T19:06:52.000Z,101072
2019-05-31T19:07:52.000Z,101081
2019-05-31T19:08:52.000Z,101075
2019-05-31T19:10:37.000Z,101073
2019-05-31T19:11:37.000Z,101071
2019-05-31T19:12:52.000Z,101076
2019-05-31T19:14:52.000Z,101078
2019-05-31T19:16:52.000Z,101075
2019-05-31T19:17:52.000Z,101077
2019-05-31T19:19:52.000Z,101078
2019-05-31T19:21:37.000Z,101077
2019-05-31T19:22:52.000Z,101079
2019-05-31T19:23:52.000Z,101077
2019-05-31T19:25:37.000Z,101076
2019-05-31T19:27:37.000Z,101082
2019-05-31T19:28:53.000Z,101088
2019-05-31T19:30:53.000Z,101092
2019-05-31T19:31:53.000Z,101091
2019-05-31T19:33:53.000Z,101089
2019-05-31T19:35:53.000Z,101086
2019-05-31T19:36:59.000Z,101084
2019-05-31T19:39:17.000Z,101088
2019-05-31T19:42:42.000Z,101086
2019-05-31T19:44:23.000Z,101084
2019-05-31T19:46:12.000Z,101085
2019-05-31T19:47:13.000Z,101093
2019-05-31T19:49:13.000Z,101089
2019-05-31T19:52:16.000Z,101095
2019-05-31T19:54:18.000Z,101100
2019-05-31T19:55:47.000Z,101093
2019-05-31T19:57:16.000Z,101100
2019-05-31T19:59:16.000Z,101098
2019-05-31T20:01:16.000Z,101101
2019-05-31T20:02:46.000Z,101110
2019-05-31T20:04:09.000Z,101096
2019-05-31T20:06:15.000Z,101108
2019-05-31T20:08:15.000Z,101111
2019-05-31T20:10:00.000Z,101107
2019-05-31T20:11:45.000Z,101103
2019-05-31T20:14:00.000Z,101109
2019-05-31T20:42:08.000Z,101107
2019-05-31T20:43:39.000Z,101113
2019-05-31T20:45:24.000Z,101106
2019-05-31T20:47:24.000Z,101108
2019-05-31T20:49:24.000Z,101109
2019-05-31T20:51:24.000Z,101108
2019-05-31T20:53:24.000Z,101099
2019-05-31T20:55:24.000Z,101102
2019-05-31T20:57:28.000Z,101103
2019-05-31T20:59:28.000Z,101104
2019-05-31T21:01:28.000Z,101103
2019-05-31T21:03:28.000Z,101101
2019-05-31T21:05:28.000Z,101106
2019-05-31T21:06:28.000Z,101109
2019-05-31T21:08:28.000Z,101106
2019-05-31T21:10:28.000Z,101106
2019-05-31T21:12:13.000Z,101107
2019-05-31T21:13:28.000Z,101109
2019-05-31T21:15:28.000Z,101111
2019-05-31T21:17:28.000Z,101111
2019-05-31T21:19:43.000Z,101105
2019-05-31T21:21:28.000Z,101101
2019-05-31T21:22:43.000Z,101105
2019-05-31T21:23:43.000Z,101100
2019-05-31T21:25:28.000Z,101106
2019-05-31T21:26:28.000Z,101105
2019-05-31T21:27:28.000Z,101106
2019-05-31T21:29:28.000Z,101109
2019-05-31T21:31:28.000Z,101111
2019-05-31T21:33:28.000Z,101109
2019-05-31T21:35:28.000Z,101100
2019-05-31T21:37:43.000Z,101106
2019-05-31T21:39:28.000Z,101100
2019-05-31T21:40:28.000Z,101098
2019-05-31T21:42:28.000Z,101104
2019-05-31T21:44:43.000Z,101101
2019-05-31T21:46:43.000Z,101104
2019-05-31T21:48:13.000Z,101110
2019-05-31T21:49:28.000Z,101103
2019-05-31T21:51:43.000Z,101102
2019-05-31T21:53:28.000Z,101102
2019-05-31T21:54:43.000Z,101096
2019-05-31T21:56:28.000Z,101097
2019-05-31T21:57:28.000Z,101096
2019-05-31T22:01:38.000Z,101098
2019-05-31T22:03:23.000Z,101094
2019-05-31T22:05:38.000Z,101090
2019-05-31T22:07:23.000Z,101095
2019-05-31T22:08:38.000Z,101096
2019-05-31T22:10:38.000Z,101095
2019-05-31T22:11:38.000Z,101088
2019-05-31T22:13:38.000Z,101091
2019-05-31T22:14:38.000Z,101093
2019-05-31T22:16:38.000Z,101090
2019-05-31T22:17:38.000Z,101088
2019-05-31T22:19:23.000Z,101087
2019-05-31T22:20:38.000Z,101089
2019-05-31T22:21:38.000Z,101087
2019-05-31T22:23:23.000Z,101087
2019-05-31T22:24:38.000Z,101078
2019-05-31T22:26:38.000Z,101082
2019-05-31T22:28:38.000Z,101083
2019-05-31T22:30:38.000Z,101082
2019-05-31T22:31:38.000Z,101084
2019-05-31T22:33:38.000Z,101086
2019-05-31T22:35:38.000Z,101082
2019-05-31T22:37:23.000Z,101082
2019-05-31T22:38:38.000Z,101087
2019-05-31T22:40:38.000Z,101085
2019-05-31T22:42:38.000Z,101089
2019-05-31T22:43:38.000Z,101083
2019-05-31T22:44:38.000Z,101080
2019-05-31T22:45:38.000Z,101086
2019-05-31T22:47:38.000Z,101085
2019-05-31T22:49:38.000Z,101085
2019-05-31T22:50:38.000Z,101079
2019-05-31T22:51:38.000Z,101087
2019-05-31T22:53:38.000Z,101084
2019-05-31T22:55:23.000Z,101081
2019-05-31T22:56:38.000Z,101085
2019-05-31T22:58:38.000Z,101083